sensor_id;sensor_type;location;lat;lon;timestamp;P1;durP1;ratioP1;P2;durP2;ratioP2
51515;SDS011;37603;55.614;37.326;2022-07-23T00:02:21;12.1;;;8.4;;
51515;SDS011;37603;55.614;37.326;2022-07-23T00:08:21;17.6;;;8.9;;
51515;SDS011;37603;55.614;37.326;2022-07-23T00:14:20;13.6;;;8.9;;
51515;SDS011;37603;55.614;37.326;2022-07-23T00:20:20;15.1;;;8.0;;
51515;SDS011;37603;55.614;37.326;2022-07-23T00:26:19;12.9;;;7.9;;
51515;SDS011;37603;55.614;37.326;2022-07-23T00:32:18;9.3;;;7.2;;
51515;SDS011;37603;55.614;37.326;2022-07-23T00:38:18;11.6;;;7.1;;
51515;SDS011;37603;55.614;37.326;2022-07-23T00:44:18;14.7;;;7.8;;
51515;SDS011;37603;55.614;37.326;2022-07-23T00:50:17;12.0;;;7.6;;
51515;SDS011;37603;55.614;37.326;2022-07-23T00:56:16;12.4;;;7.4;;
51515;SDS011;37603;55.614;37.326;2022-07-23T01:02:15;11.2;;;8.1;;
51515;SDS011;37603;55.614;37.326;2022-07-23T01:08:15;11.4;;;7.6;;
51515;SDS011;37603;55.614;37.326;2022-07-23T01:14:15;10.8;;;6.9;;
51515;SDS011;37603;55.614;37.326;2022-07-23T01:20:13;12.8;;;7.8;;
51515;SDS011;37603;55.614;37.326;2022-07-23T01:26:13;10.4;;;7.6;;
51515;SDS011;37603;55.614;37.326;2022-07-23T01:32:12;11.6;;;7.2;;
51515;SDS011;37603;55.614;37.326;2022-07-23T01:38:12;13.3;;;7.6;;
51515;SDS011;37603;55.614;37.326;2022-07-23T01:44:11;13.5;;;7.6;;
51515;SDS011;37603;55.614;37.326;2022-07-23T01:50:10;13.0;;;7.9;;
51515;SDS011;37603;55.614;37.326;2022-07-23T01:56:10;14.0;;;8.2;;
51515;SDS011;37603;55.614;37.326;2022-07-23T02:02:09;11.6;;;7.3;;
51515;SDS011;37603;55.614;37.326;2022-07-23T02:08:09;9.8;;;7.5;;
51515;SDS011;37603;55.614;37.326;2022-07-23T02:14:08;10.9;;;7.6;;
51515;SDS011;37603;55.614;37.326;2022-07-23T02:20:08;11.4;;;7.2;;
51515;SDS011;37603;55.614;37.326;2022-07-23T02:26:07;13.7;;;7.3;;
51515;SDS011;37603;55.614;37.326;2022-07-23T02:32:06;10.4;;;7.0;;
51515;SDS011;37603;55.614;37.326;2022-07-23T02:38:05;11.5;;;7.5;;
51515;SDS011;37603;55.614;37.326;2022-07-23T02:44:05;10.9;;;7.8;;
51515;SDS011;37603;55.614;37.326;2022-07-23T02:50:05;13.3;;;7.7;;
51515;SDS011;37603;55.614;37.326;2022-07-23T02:56:04;10.2;;;7.6;;
51515;SDS011;37603;55.614;37.326;2022-07-23T03:02:03;12.2;;;7.9;;
51515;SDS011;37603;55.614;37.326;2022-07-23T03:08:03;8.9;;;7.0;;
51515;SDS011;37603;55.614;37.326;2022-07-23T03:14:02;13.6;;;7.4;;
51515;SDS011;37603;55.614;37.326;2022-07-23T03:20:02;13.7;;;7.9;;
51515;SDS011;37603;55.614;37.326;2022-07-23T03:26:01;11.1;;;7.8;;
51515;SDS011;37603;55.614;37.326;2022-07-23T03:32:00;12.6;;;7.3;;
51515;SDS011;37603;55.614;37.326;2022-07-23T03:38:00;12.2;;;7.2;;
51515;SDS011;37603;55.614;37.326;2022-07-23T03:43:59;10.3;;;7.5;;
51515;SDS011;37603;55.614;37.326;2022-07-23T03:49:58;15.9;;;7.5;;
51515;SDS011;37603;55.614;37.326;2022-07-23T03:55:58;10.9;;;6.8;;
51515;SDS011;37603;55.614;37.326;2022-07-23T04:01:58;10.5;;;6.7;;
51515;SDS011;37603;55.614;37.326;2022-07-23T04:07:57;9.7;;;6.7;;
51515;SDS011;37603;55.614;37.326;2022-07-23T04:13:56;10.8;;;6.5;;
51515;SDS011;37603;55.614;37.326;2022-07-23T04:19:56;10.4;;;6.2;;
51515;SDS011;37603;55.614;37.326;2022-07-23T04:25:55;7.7;;;6.1;;
51515;SDS011;37603;55.614;37.326;2022-07-23T04:31:55;9.2;;;6.3;;
51515;SDS011;37603;55.614;37.326;2022-07-23T04:37:54;8.7;;;6.4;;
51515;SDS011;37603;55.614;37.326;2022-07-23T04:43:54;9.4;;;6.3;;
51515;SDS011;37603;55.614;37.326;2022-07-23T04:49:54;9.3;;;5.8;;
51515;SDS011;37603;55.614;37.326;2022-07-23T04:55:53;8.7;;;5.3;;
51515;SDS011;37603;55.614;37.326;2022-07-23T05:01:53;10.2;;;5.2;;
51515;SDS011;37603;55.614;37.326;2022-07-23T05:07:53;8.9;;;5.0;;
51515;SDS011;37603;55.614;37.326;2022-07-23T05:13:53;10.1;;;5.2;;
51515;SDS011;37603;55.614;37.326;2022-07-23T05:19:52;7.4;;;4.8;;
51515;SDS011;37603;55.614;37.326;2022-07-23T05:25:52;7.6;;;4.8;;
51515;SDS011;37603;55.614;37.326;2022-07-23T05:31:52;7.9;;;4.9;;
51515;SDS011;37603;55.614;37.326;2022-07-23T05:37:52;5.6;;;5.0;;
51515;SDS011;37603;55.614;37.326;2022-07-23T05:43:52;6.1;;;4.6;;
51515;SDS011;37603;55.614;37.326;2022-07-23T05:49:52;6.8;;;5.1;;
51515;SDS011;37603;55.614;37.326;2022-07-23T05:55:52;8.8;;;5.7;;
51515;SDS011;37603;55.614;37.326;2022-07-23T06:01:52;6.4;;;4.4;;
51515;SDS011;37603;55.614;37.326;2022-07-23T06:07:52;8.6;;;4.6;;
51515;SDS011;37603;55.614;37.326;2022-07-23T06:13:52;8.4;;;5.0;;
51515;SDS011;37603;55.614;37.326;2022-07-23T06:19:52;5.8;;;4.7;;
51515;SDS011;37603;55.614;37.326;2022-07-23T06:25:52;5.4;;;4.9;;
51515;SDS011;37603;55.614;37.326;2022-07-23T06:31:52;7.4;;;5.5;;
51515;SDS011;37603;55.614;37.326;2022-07-23T06:37:52;6.0;;;4.5;;
51515;SDS011;37603;55.614;37.326;2022-07-23T06:43:52;5.2;;;4.7;;
51515;SDS011;37603;55.614;37.326;2022-07-23T06:49:52;6.6;;;5.4;;
51515;SDS011;37603;55.614;37.326;2022-07-23T06:55:52;5.7;;;5.1;;
51515;SDS011;37603;55.614;37.326;2022-07-23T07:01:52;5.8;;;4.9;;
51515;SDS011;37603;55.614;37.326;2022-07-23T07:07:53;6.2;;;4.8;;
51515;SDS011;37603;55.614;37.326;2022-07-23T07:12:28;6.2;;;4.8;;
51515;SDS011;37603;55.614;37.326;2022-07-23T07:13:53;4.8;;;4.3;;
51515;SDS011;37603;55.614;37.326;2022-07-23T07:15:24;4.8;;;4.3;;
51515;SDS011;37603;55.614;37.326;2022-07-23T07:15:59;unavailable;;;unavailable;;
51515;SDS011;37603;55.614;37.326;2022-07-23T07:15:59;4.8;;;4.3;;
51515;SDS011;37603;55.614;37.326;2022-07-23T07:19:53;5.2;;;4.5;;
51515;SDS011;37603;55.614;37.326;2022-07-23T07:25:53;4.8;;;4.1;;
51515;SDS011;37603;55.614;37.326;2022-07-23T07:31:53;4.6;;;3.9;;
51515;SDS011;37603;55.614;37.326;2022-07-23T07:37:53;5.7;;;4.0;;
51515;SDS011;37603;55.614;37.326;2022-07-23T07:43:53;6.1;;;4.6;;
51515;SDS011;37603;55.614;37.326;2022-07-23T07:49:54;5.0;;;4.5;;
51515;SDS011;37603;55.614;37.326;2022-07-23T07:55:54;4.6;;;4.1;;
51515;SDS011;37603;55.614;37.326;2022-07-23T08:01:54;5.6;;;4.5;;
51515;SDS011;37603;55.614;37.326;2022-07-23T08:07:54;5.7;;;4.6;;
51515;SDS011;37603;55.614;37.326;2022-07-23T08:14:00;5.4;;;4.9;;
51515;SDS011;37603;55.614;37.326;2022-07-23T08:19:54;6.3;;;4.3;;
51515;SDS011;37603;55.614;37.326;2022-07-23T08:25:54;7.0;;;4.6;;
51515;SDS011;37603;55.614;37.326;2022-07-23T08:31:54;5.2;;;4.6;;
51515;SDS011;37603;55.614;37.326;2022-07-23T08:37:55;5.1;;;4.5;;
51515;SDS011;37603;55.614;37.326;2022-07-23T08:43:55;5.3;;;4.6;;
51515;SDS011;37603;55.614;37.326;2022-07-23T08:49:55;5.5;;;4.9;;
51515;SDS011;37603;55.614;37.326;2022-07-23T08:55:56;5.6;;;5.0;;
51515;SDS011;37603;55.614;37.326;2022-07-23T09:01:55;5.9;;;5.3;;
51515;SDS011;37603;55.614;37.326;2022-07-23T09:08:02;5.7;;;4.8;;
51515;SDS011;37603;55.614;37.326;2022-07-23T09:13:56;5.1;;;4.6;;
51515;SDS011;37603;55.614;37.326;2022-07-23T09:20:02;6.3;;;5.3;;
51515;SDS011;37603;55.614;37.326;2022-07-23T09:25:56;6.0;;;5.4;;
51515;SDS011;37603;55.614;37.326;2022-07-23T09:31:57;7.7;;;5.3;;
51515;SDS011;37603;55.614;37.326;2022-07-23T09:38:00;6.6;;;5.6;;
51515;SDS011;37603;55.614;37.326;2022-07-23T09:43:56;6.0;;;5.4;;
51515;SDS011;37603;55.614;37.326;2022-07-23T09:54:21;6.0;;;5.4;;
51515;SDS011;37603;55.614;37.326;2022-07-23T09:55:57;6.5;;;5.6;;
51515;SDS011;37603;55.614;37.326;2022-07-23T10:01:57;8.6;;;5.5;;
51515;SDS011;37603;55.614;37.326;2022-07-23T10:07:57;7.5;;;5.7;;
51515;SDS011;37603;55.614;37.326;2022-07-23T10:13:58;7.0;;;5.5;;
51515;SDS011;37603;55.614;37.326;2022-07-23T10:19:57;6.0;;;5.4;;
51515;SDS011;37603;55.614;37.326;2022-07-23T10:26:19;6.4;;;5.6;;
51515;SDS011;37603;55.614;37.326;2022-07-23T10:26:48;6.4;;;5.6;;
51515;SDS011;37603;55.614;37.326;2022-07-23T10:27:53;6.4;;;5.6;;
51515;SDS011;37603;55.614;37.326;2022-07-23T10:29:43;6.4;;;5.6;;
51515;SDS011;37603;55.614;37.326;2022-07-23T10:31:28;6.4;;;5.6;;
51515;SDS011;37603;55.614;37.326;2022-07-23T10:32:02;6.5;;;5.7;;
51515;SDS011;37603;55.614;37.326;2022-07-23T10:32:43;6.5;;;5.7;;
51515;SDS011;37603;55.614;37.326;2022-07-23T10:38:01;7.4;;;6.2;;
51515;SDS011;37603;55.614;37.326;2022-07-23T10:44:06;7.5;;;5.9;;
51515;SDS011;37603;55.614;37.326;2022-07-23T10:55:58;8.7;;;6.0;;
51515;SDS011;37603;55.614;37.326;2022-07-23T11:08:10;7.2;;;5.7;;
51515;SDS011;37603;55.614;37.326;2022-07-23T11:13:59;7.1;;;5.7;;
51515;SDS011;37603;55.614;37.326;2022-07-23T11:25:59;6.5;;;5.9;;
51515;SDS011;37603;55.614;37.326;2022-07-23T11:32:01;7.3;;;6.2;;
51515;SDS011;37603;55.614;37.326;2022-07-23T11:38:03;6.7;;;5.9;;
51515;SDS011;37603;55.614;37.326;2022-07-23T11:44:00;7.0;;;5.6;;
51515;SDS011;37603;55.614;37.326;2022-07-23T11:50:01;6.3;;;5.7;;
51515;SDS011;37603;55.614;37.326;2022-07-23T11:56:03;7.5;;;5.6;;
51515;SDS011;37603;55.614;37.326;2022-07-23T12:02:01;6.6;;;5.7;;
51515;SDS011;37603;55.614;37.326;2022-07-23T12:08:01;7.0;;;6.3;;
51515;SDS011;37603;55.614;37.326;2022-07-23T12:14:00;6.7;;;6.1;;
51515;SDS011;37603;55.614;37.326;2022-07-23T12:20:01;6.5;;;5.9;;
51515;SDS011;37603;55.614;37.326;2022-07-23T12:26:01;6.8;;;5.8;;
51515;SDS011;37603;55.614;37.326;2022-07-23T12:32:01;7.1;;;6.1;;
51515;SDS011;37603;55.614;37.326;2022-07-23T12:38:02;7.7;;;6.3;;
51515;SDS011;37603;55.614;37.326;2022-07-23T12:44:01;6.4;;;5.7;;
51515;SDS011;37603;55.614;37.326;2022-07-23T12:50:01;6.0;;;5.4;;
51515;SDS011;37603;55.614;37.326;2022-07-23T12:56:04;6.6;;;5.9;;
51515;SDS011;37603;55.614;37.326;2022-07-23T13:02:01;5.8;;;5.3;;
51515;SDS011;37603;55.614;37.326;2022-07-23T13:08:02;6.2;;;5.2;;
51515;SDS011;37603;55.614;37.326;2022-07-23T13:14:02;7.0;;;6.3;;
51515;SDS011;37603;55.614;37.326;2022-07-23T13:20:02;7.3;;;5.7;;
51515;SDS011;37603;55.614;37.326;2022-07-23T13:26:02;7.0;;;5.6;;
51515;SDS011;37603;55.614;37.326;2022-07-23T13:38:02;6.6;;;5.5;;
51515;SDS011;37603;55.614;37.326;2022-07-23T13:44:02;6.2;;;5.5;;
51515;SDS011;37603;55.614;37.326;2022-07-23T13:50:03;5.9;;;5.3;;
51515;SDS011;37603;55.614;37.326;2022-07-23T13:56:03;6.5;;;5.3;;
51515;SDS011;37603;55.614;37.326;2022-07-23T14:08:03;8.0;;;5.6;;
51515;SDS011;37603;55.614;37.326;2022-07-23T14:20:04;8.6;;;5.9;;
51515;SDS011;37603;55.614;37.326;2022-07-23T14:26:03;8.0;;;6.1;;
51515;SDS011;37603;55.614;37.326;2022-07-23T14:32:03;5.7;;;5.1;;
51515;SDS011;37603;55.614;37.326;2022-07-23T14:38:03;5.8;;;5.2;;
51515;SDS011;37603;55.614;37.326;2022-07-23T14:44:03;6.3;;;5.3;;
51515;SDS011;37603;55.614;37.326;2022-07-23T14:50:04;5.7;;;5.1;;
51515;SDS011;37603;55.614;37.326;2022-07-23T14:56:04;6.2;;;5.6;;
51515;SDS011;37603;55.614;37.326;2022-07-23T15:02:04;6.0;;;5.2;;
51515;SDS011;37603;55.614;37.326;2022-07-23T15:08:04;6.1;;;5.5;;
51515;SDS011;37603;55.614;37.326;2022-07-23T15:14:04;5.5;;;5.0;;
51515;SDS011;37603;55.614;37.326;2022-07-23T16:05:11;22.6;;;12.7;;
51515;SDS011;37603;55.614;37.326;2022-07-23T16:11:04;7.4;;;6.1;;
51515;SDS011;37603;55.614;37.326;2022-07-23T16:17:04;9.3;;;7.2;;
51515;SDS011;37603;55.614;37.326;2022-07-23T16:23:04;9.1;;;7.4;;
51515;SDS011;37603;55.614;37.326;2022-07-23T16:29:04;8.2;;;6.5;;
51515;SDS011;37603;55.614;37.326;2022-07-23T16:35:04;11.2;;;8.5;;
51515;SDS011;37603;55.614;37.326;2022-07-23T16:41:04;181.4;;;150.5;;
51515;SDS011;37603;55.614;37.326;2022-07-23T16:47:04;59.2;;;41.9;;
51515;SDS011;37603;55.614;37.326;2022-07-23T16:53:04;15.3;;;11.5;;
51515;SDS011;37603;55.614;37.326;2022-07-23T16:59:04;1164.7;;;832.0;;
51515;SDS011;37603;55.614;37.326;2022-07-23T17:05:05;1145.8;;;832.0;;
51515;SDS011;37603;55.614;37.326;2022-07-23T17:11:04;782.4;;;659.8;;
51515;SDS011;37603;55.614;37.326;2022-07-23T17:17:04;428.6;;;352.8;;
51515;SDS011;37603;55.614;37.326;2022-07-23T17:23:04;572.7;;;461.6;;
51515;SDS011;37603;55.614;37.326;2022-07-23T17:29:04;276.9;;;188.2;;
51515;SDS011;37603;55.614;37.326;2022-07-23T17:35:04;74.9;;;55.7;;
51515;SDS011;37603;55.614;37.326;2022-07-23T17:41:04;9.5;;;8.5;;
51515;SDS011;37603;55.614;37.326;2022-07-23T17:47:04;10.1;;;8.3;;
51515;SDS011;37603;55.614;37.326;2022-07-23T17:53:04;21.0;;;15.9;;
51515;SDS011;37603;55.614;37.326;2022-07-23T17:59:04;48.6;;;36.0;;
51515;SDS011;37603;55.614;37.326;2022-07-23T18:05:04;23.9;;;18.7;;
51515;SDS011;37603;55.614;37.326;2022-07-23T18:11:03;24.3;;;18.1;;
51515;SDS011;37603;55.614;37.326;2022-07-23T18:17:03;24.4;;;17.6;;
51515;SDS011;37603;55.614;37.326;2022-07-23T18:23:03;21.3;;;13.7;;
51515;SDS011;37603;55.614;37.326;2022-07-23T18:29:03;19.2;;;14.6;;
51515;SDS011;37603;55.614;37.326;2022-07-23T18:35:03;18.5;;;13.5;;
51515;SDS011;37603;55.614;37.326;2022-07-23T18:41:03;16.6;;;12.7;;
51515;SDS011;37603;55.614;37.326;2022-07-23T18:47:02;18.6;;;13.2;;
51515;SDS011;37603;55.614;37.326;2022-07-23T18:53:02;17.0;;;12.2;;
51515;SDS011;37603;55.614;37.326;2022-07-23T18:59:02;17.8;;;14.0;;
51515;SDS011;37603;55.614;37.326;2022-07-23T19:05:02;19.4;;;15.6;;
51515;SDS011;37603;55.614;37.326;2022-07-23T19:11:01;20.4;;;18.2;;
51515;SDS011;37603;55.614;37.326;2022-07-23T19:17:01;24.1;;;18.0;;
51515;SDS011;37603;55.614;37.326;2022-07-23T19:23:01;54.5;;;47.9;;
51515;SDS011;37603;55.614;37.326;2022-07-23T19:29:01;73.0;;;58.2;;
51515;SDS011;37603;55.614;37.326;2022-07-23T19:35:01;27.3;;;21.9;;
51515;SDS011;37603;55.614;37.326;2022-07-23T19:41:00;24.9;;;20.4;;
51515;SDS011;37603;55.614;37.326;2022-07-23T19:47:00;31.5;;;24.9;;
51515;SDS011;37603;55.614;37.326;2022-07-23T19:53:00;26.8;;;19.4;;
51515;SDS011;37603;55.614;37.326;2022-07-23T19:59:00;27.4;;;21.6;;
51515;SDS011;37603;55.614;37.326;2022-07-23T20:04:59;23.2;;;17.5;;
51515;SDS011;37603;55.614;37.326;2022-07-23T20:10:59;20.0;;;13.9;;
51515;SDS011;37603;55.614;37.326;2022-07-23T20:16:59;21.7;;;16.3;;
51515;SDS011;37603;55.614;37.326;2022-07-23T20:22:58;20.6;;;14.8;;
51515;SDS011;37603;55.614;37.326;2022-07-23T20:28:58;27.2;;;19.0;;
51515;SDS011;37603;55.614;37.326;2022-07-23T20:34:58;25.1;;;18.0;;
51515;SDS011;37603;55.614;37.326;2022-07-23T20:40:58;21.7;;;16.1;;
51515;SDS011;37603;55.614;37.326;2022-07-23T20:46:57;21.0;;;16.1;;
51515;SDS011;37603;55.614;37.326;2022-07-23T20:52:57;23.6;;;17.8;;
51515;SDS011;37603;55.614;37.326;2022-07-23T20:58:56;22.1;;;17.5;;
51515;SDS011;37603;55.614;37.326;2022-07-23T21:04:56;26.2;;;19.5;;
51515;SDS011;37603;55.614;37.326;2022-07-23T21:10:56;32.5;;;27.3;;
51515;SDS011;37603;55.614;37.326;2022-07-23T21:16:56;44.7;;;35.0;;
51515;SDS011;37603;55.614;37.326;2022-07-23T21:22:55;34.4;;;25.8;;
51515;SDS011;37603;55.614;37.326;2022-07-23T21:28:55;32.9;;;25.6;;
51515;SDS011;37603;55.614;37.326;2022-07-23T21:34:55;38.5;;;28.6;;
51515;SDS011;37603;55.614;37.326;2022-07-23T21:40:54;36.1;;;27.4;;
51515;SDS011;37603;55.614;37.326;2022-07-23T21:46:54;37.3;;;25.9;;
51515;SDS011;37603;55.614;37.326;2022-07-23T21:52:54;36.1;;;25.6;;
51515;SDS011;37603;55.614;37.326;2022-07-23T21:58:53;36.4;;;24.4;;
51515;SDS011;37603;55.614;37.326;2022-07-23T22:04:53;33.0;;;22.1;;
51515;SDS011;37603;55.614;37.326;2022-07-23T22:10:52;33.5;;;22.3;;
51515;SDS011;37603;55.614;37.326;2022-07-23T22:16:52;32.8;;;21.9;;
51515;SDS011;37603;55.614;37.326;2022-07-23T22:22:52;34.3;;;25.3;;
51515;SDS011;37603;55.614;37.326;2022-07-23T22:28:51;34.5;;;22.6;;
51515;SDS011;37603;55.614;37.326;2022-07-23T22:34:51;29.0;;;18.3;;
51515;SDS011;37603;55.614;37.326;2022-07-23T22:40:51;28.8;;;17.7;;
51515;SDS011;37603;55.614;37.326;2022-07-23T22:46:50;26.6;;;18.2;;
51515;SDS011;37603;55.614;37.326;2022-07-23T22:52:50;22.0;;;17.0;;
51515;SDS011;37603;55.614;37.326;2022-07-23T22:58:50;23.5;;;17.4;;
51515;SDS011;37603;55.614;37.326;2022-07-23T23:04:49;22.0;;;16.9;;
51515;SDS011;37603;55.614;37.326;2022-07-23T23:10:49;24.0;;;17.7;;
51515;SDS011;37603;55.614;37.326;2022-07-23T23:16:49;23.7;;;16.3;;
51515;SDS011;37603;55.614;37.326;2022-07-23T23:22:48;23.9;;;17.0;;
51515;SDS011;37603;55.614;37.326;2022-07-23T23:28:48;21.7;;;16.5;;
51515;SDS011;37603;55.614;37.326;2022-07-23T23:34:47;24.5;;;17.6;;
51515;SDS011;37603;55.614;37.326;2022-07-23T23:40:47;22.0;;;16.5;;
51515;SDS011;37603;55.614;37.326;2022-07-23T23:46:47;23.0;;;16.5;;
51515;SDS011;37603;55.614;37.326;2022-07-23T23:52:46;22.1;;;16.8;;
51515;SDS011;37603;55.614;37.326;2022-07-23T23:58:46;24.2;;;15.7;;
